Current Weather

Lamerd

Lamerd, Iran (OISR)

Report from: Tuesday, February 27, 2024 9:00 AM UTC
Current time: Tuesday, February 27, 2024 9:42 AM UTC

Nearby weather – Weather history – Daily summaries
Weather forecast

Temperature24.0°C (75.2°F)
Dew point10.0°C (50.0°F)
Winds Calm
Clouds Sky clear
Altimeter29.99 in.Hg (1016 mB)
Relative humidity41 %
Density altitude1,142 ft. (348 m)
Remarks Ceiling and visibility OK
No significant changes expected in the next two hours
Flight conditions Visual Meteorological Conditions
Raw dataOISR 270900Z 00000KT CAVOK 24/10 Q1015 A2999 NOSIG
An error has occurred. This application may no longer respond until reloaded. Reload 🗙